sensor_id;sensor_type;location;lat;lon;timestamp;P1;durP1;ratioP1;P2;durP2;ratioP2
3211;SDS011;1618;47.056;15.472;2023-08-17T02:38:12;3.30;;;3.20;;
3211;SDS011;1618;47.056;15.472;2023-08-17T02:40:41;3.30;;;3.20;;
3211;SDS011;1618;47.056;15.472;2023-08-17T03:30:16;1.80;;;1.80;;
3211;SDS011;1618;47.056;15.472;2023-08-17T03:32:43;13.07;;;12.47;;
3211;SDS011;1618;47.056;15.472;2023-08-17T03:40:37;4.50;;;4.40;;
3211;SDS011;1618;47.056;15.472;2023-08-17T03:43:04;5.90;;;5.70;;
3211;SDS011;1618;47.056;15.472;2023-08-17T03:45:34;5.80;;;5.60;;
3211;SDS011;1618;47.056;15.472;2023-08-17T03:48:03;5.80;;;5.60;;
3211;SDS011;1618;47.056;15.472;2023-08-17T03:53:35;5.37;;;5.20;;
3211;SDS011;1618;47.056;15.472;2023-08-17T03:56:04;5.70;;;5.50;;
3211;SDS011;1618;47.056;15.472;2023-08-17T03:58:53;4.87;;;4.77;;
3211;SDS011;1618;47.056;15.472;2023-08-17T04:01:31;5.10;;;5.00;;
3211;SDS011;1618;47.056;15.472;2023-08-17T04:04:00;6.00;;;5.80;;
3211;SDS011;1618;47.056;15.472;2023-08-17T04:06:30;4.60;;;4.50;;
3211;SDS011;1618;47.056;15.472;2023-08-17T04:27:19;3.70;;;3.60;;
3211;SDS011;1618;47.056;15.472;2023-08-17T04:29:47;3.13;;;3.03;;
3211;SDS011;1618;47.056;15.472;2023-08-17T04:32:14;5.67;;;5.47;;
3211;SDS011;1618;47.056;15.472;2023-08-17T04:34:48;5.00;;;4.90;;
3211;SDS011;1618;47.056;15.472;2023-08-17T04:37:32;11.30;;;10.80;;
3211;SDS011;1618;47.056;15.472;2023-08-17T04:40:02;2.90;;;2.90;;
3211;SDS011;1618;47.056;15.472;2023-08-17T05:54:33;2.43;;;2.43;;
3211;SDS011;1618;47.056;15.472;2023-08-17T05:57:01;2.60;;;2.60;;
3211;SDS011;1618;47.056;15.472;2023-08-17T05:59:29;2.97;;;2.87;;
3211;SDS011;1618;47.056;15.472;2023-08-17T06:01:56;2.60;;;2.60;;
3211;SDS011;1618;47.056;15.472;2023-08-17T06:04:27;3.20;;;3.10;;
3211;SDS011;1618;47.056;15.472;2023-08-17T06:06:54;2.30;;;2.30;;
3211;SDS011;1618;47.056;15.472;2023-08-17T06:09:24;1.80;;;1.80;;
3211;SDS011;1618;47.056;15.472;2023-08-17T06:11:53;1.93;;;1.93;;
3211;SDS011;1618;47.056;15.472;2023-08-17T06:14:20;1.90;;;1.90;;
3211;SDS011;1618;47.056;15.472;2023-08-17T06:16:49;2.53;;;2.53;;
3211;SDS011;1618;47.056;15.472;2023-08-17T06:19:18;2.37;;;2.37;;
3211;SDS011;1618;47.056;15.472;2023-08-17T06:21:45;2.63;;;2.63;;
3211;SDS011;1618;47.056;15.472;2023-08-17T06:24:13;2.50;;;2.50;;
3211;SDS011;1618;47.056;15.472;2023-08-17T06:26:41;2.60;;;2.60;;
3211;SDS011;1618;47.056;15.472;2023-08-17T06:29:10;2.70;;;2.70;;
3211;SDS011;1618;47.056;15.472;2023-08-17T06:31:39;3.00;;;2.90;;
3211;SDS011;1618;47.056;15.472;2023-08-17T06:34:06;3.23;;;3.13;;
3211;SDS011;1618;47.056;15.472;2023-08-17T06:36:37;3.20;;;3.10;;
3211;SDS011;1618;47.056;15.472;2023-08-17T06:39:05;3.93;;;3.83;;
3211;SDS011;1618;47.056;15.472;2023-08-17T06:41:34;4.70;;;4.60;;
3211;SDS011;1618;47.056;15.472;2023-08-17T06:44:02;4.10;;;4.00;;
3211;SDS011;1618;47.056;15.472;2023-08-17T06:46:36;4.50;;;4.40;;
3211;SDS011;1618;47.056;15.472;2023-08-17T06:49:05;4.53;;;4.43;;
3211;SDS011;1618;47.056;15.472;2023-08-17T06:51:33;4.43;;;4.33;;
3211;SDS011;1618;47.056;15.472;2023-08-17T06:54:01;4.80;;;4.70;;
3211;SDS011;1618;47.056;15.472;2023-08-17T06:56:29;4.80;;;4.70;;
3211;SDS011;1618;47.056;15.472;2023-08-17T06:59:00;5.30;;;5.10;;
3211;SDS011;1618;47.056;15.472;2023-08-17T07:01:31;5.57;;;5.37;;
3211;SDS011;1618;47.056;15.472;2023-08-17T07:04:03;5.73;;;5.53;;
3211;SDS011;1618;47.056;15.472;2023-08-17T07:06:31;5.73;;;5.53;;
3211;SDS011;1618;47.056;15.472;2023-08-17T07:09:00;5.87;;;5.67;;
3211;SDS011;1618;47.056;15.472;2023-08-17T07:11:37;7.10;;;6.90;;
3211;SDS011;1618;47.056;15.472;2023-08-17T07:14:05;7.50;;;7.20;;
3211;SDS011;1618;47.056;15.472;2023-08-17T07:16:34;8.00;;;7.70;;
3211;SDS011;1618;47.056;15.472;2023-08-17T07:19:03;7.50;;;7.30;;
3211;SDS011;1618;47.056;15.472;2023-08-17T07:21:37;8.47;;;8.17;;
3211;SDS011;1618;47.056;15.472;2023-08-17T07:24:15;8.70;;;8.40;;
3211;SDS011;1618;47.056;15.472;2023-08-17T07:26:44;9.00;;;8.70;;
3211;SDS011;1618;47.056;15.472;2023-08-17T07:29:12;7.90;;;7.60;;
3211;SDS011;1618;47.056;15.472;2023-08-17T07:31:41;8.53;;;8.23;;
3211;SDS011;1618;47.056;15.472;2023-08-17T07:34:11;9.10;;;8.80;;
3211;SDS011;1618;47.056;15.472;2023-08-17T07:36:44;11.37;;;10.97;;
3211;SDS011;1618;47.056;15.472;2023-08-17T07:39:11;11.20;;;10.80;;
3211;SDS011;1618;47.056;15.472;2023-08-17T07:41:40;11.00;;;10.60;;
3211;SDS011;1618;47.056;15.472;2023-08-17T07:44:24;10.00;;;9.60;;
3211;SDS011;1618;47.056;15.472;2023-08-17T07:49:43;11.90;;;11.40;;
3211;SDS011;1618;47.056;15.472;2023-08-17T07:52:11;12.50;;;12.00;;
3211;SDS011;1618;47.056;15.472;2023-08-17T07:54:39;13.90;;;13.30;;
3211;SDS011;1618;47.056;15.472;2023-08-17T07:57:06;13.40;;;12.90;;
3211;SDS011;1618;47.056;15.472;2023-08-17T07:59:34;14.90;;;14.30;;
3211;SDS011;1618;47.056;15.472;2023-08-17T08:02:01;15.85;;;15.15;;
3211;SDS011;1618;47.056;15.472;2023-08-17T08:04:28;155.37;;;143.97;;
3211;SDS011;1618;47.056;15.472;2023-08-17T08:06:57;18.40;;;17.60;;
3211;SDS011;1618;47.056;15.472;2023-08-17T08:09:27;20.40;;;19.40;;
3211;SDS011;1618;47.056;15.472;2023-08-17T08:11:55;22.50;;;21.40;;
3211;SDS011;1618;47.056;15.472;2023-08-17T08:14:24;21.70;;;20.70;;
3211;SDS011;1618;47.056;15.472;2023-08-17T08:16:51;22.00;;;20.90;;
3211;SDS011;1618;47.056;15.472;2023-08-17T08:19:23;21.10;;;20.10;;
3211;SDS011;1618;47.056;15.472;2023-08-17T08:22:00;19.80;;;18.90;;
3211;SDS011;1618;47.056;15.472;2023-08-17T08:24:28;21.17;;;20.17;;
3211;SDS011;1618;47.056;15.472;2023-08-17T08:26:59;20.90;;;19.90;;
3211;SDS011;1618;47.056;15.472;2023-08-17T08:32:15;20.10;;;19.10;;
3211;SDS011;1618;47.056;15.472;2023-08-17T08:34:52;20.60;;;19.60;;
3211;SDS011;1618;47.056;15.472;2023-08-17T08:37:34;22.67;;;21.50;;
3211;SDS011;1618;47.056;15.472;2023-08-17T08:40:06;23.87;;;22.60;;
3211;SDS011;1618;47.056;15.472;2023-08-17T08:42:37;23.43;;;22.23;;
3211;SDS011;1618;47.056;15.472;2023-08-17T08:45:06;25.50;;;24.20;;
3211;SDS011;1618;47.056;15.472;2023-08-17T08:56:46;26.50;;;25.10;;
3211;SDS011;1618;47.056;15.472;2023-08-17T08:59:19;28.00;;;26.50;;
3211;SDS011;1618;47.056;15.472;2023-08-17T09:02:05;26.10;;;24.70;;
3211;SDS011;1618;47.056;15.472;2023-08-17T09:04:39;27.10;;;25.60;;
3211;SDS011;1618;47.056;15.472;2023-08-17T09:07:07;28.07;;;26.37;;
3211;SDS011;1618;47.056;15.472;2023-08-17T09:09:38;26.83;;;25.30;;
3211;SDS011;1618;47.056;15.472;2023-08-17T09:12:18;28.37;;;26.67;;
3211;SDS011;1618;47.056;15.472;2023-08-17T09:33:06;27.03;;;25.33;;
3211;SDS011;1618;47.056;15.472;2023-08-17T09:35:38;29.53;;;27.63;;
3211;SDS011;1618;47.056;15.472;2023-08-17T09:38:10;29.67;;;27.67;;
3211;SDS011;1618;47.056;15.472;2023-08-17T09:40:39;31.47;;;29.37;;
3211;SDS011;1618;47.056;15.472;2023-08-17T09:43:12;31.03;;;28.93;;
3211;SDS011;1618;47.056;15.472;2023-08-17T10:38:09;31.03;;;28.53;;
3211;SDS011;1618;47.056;15.472;2023-08-17T10:46:37;32.70;;;29.90;;
3211;SDS011;1618;47.056;15.472;2023-08-17T10:52:14;32.40;;;29.80;;
3211;SDS011;1618;47.056;15.472;2023-08-17T10:54:45;33.57;;;30.87;;
3211;SDS011;1618;47.056;15.472;2023-08-17T11:03:07;31.97;;;29.27;;
3211;SDS011;1618;47.056;15.472;2023-08-17T11:08:38;32.07;;;29.37;;
3211;SDS011;1618;47.056;15.472;2023-08-17T11:14:11;33.60;;;30.80;;
3211;SDS011;1618;47.056;15.472;2023-08-17T11:16:40;32.97;;;30.27;;
3211;SDS011;1618;47.056;15.472;2023-08-17T11:22:29;35.00;;;32.20;;
3211;SDS011;1618;47.056;15.472;2023-08-17T11:28:00;34.03;;;31.23;;
3211;SDS011;1618;47.056;15.472;2023-08-17T11:33:34;34.93;;;32.13;;
3211;SDS011;1618;47.056;15.472;2023-08-17T11:39:06;34.83;;;32.00;;
3211;SDS011;1618;47.056;15.472;2023-08-17T11:47:30;35.20;;;32.20;;
3211;SDS011;1618;47.056;15.472;2023-08-17T11:50:28;36.40;;;33.20;;
3211;SDS011;1618;47.056;15.472;2023-08-17T11:55:59;36.67;;;33.60;;
3211;SDS011;1618;47.056;15.472;2023-08-17T12:01:32;34.20;;;31.30;;
3211;SDS011;1618;47.056;15.472;2023-08-17T12:07:06;33.37;;;30.43;;
3211;SDS011;1618;47.056;15.472;2023-08-17T12:12:57;32.40;;;29.50;;
3211;SDS011;1618;47.056;15.472;2023-08-17T12:15:32;34.33;;;31.40;;
3211;SDS011;1618;47.056;15.472;2023-08-17T12:18:03;35.80;;;32.80;;
3211;SDS011;1618;47.056;15.472;2023-08-17T12:20:52;33.77;;;30.77;;
3211;SDS011;1618;47.056;15.472;2023-08-17T12:23:31;34.50;;;31.40;;
3211;SDS011;1618;47.056;15.472;2023-08-17T12:29:04;36.87;;;33.87;;
3211;SDS011;1618;47.056;15.472;2023-08-17T12:34:37;34.00;;;30.90;;
3211;SDS011;1618;47.056;15.472;2023-08-17T12:40:17;34.63;;;31.33;;
3211;SDS011;1618;47.056;15.472;2023-08-17T12:46:02;33.63;;;30.43;;
3211;SDS011;1618;47.056;15.472;2023-08-17T12:48:34;36.87;;;33.67;;
3211;SDS011;1618;47.056;15.472;2023-08-17T12:51:12;36.47;;;33.47;;
3211;SDS011;1618;47.056;15.472;2023-08-17T12:53:49;38.40;;;35.37;;
3211;SDS011;1618;47.056;15.472;2023-08-17T12:59:21;35.20;;;32.00;;
3211;SDS011;1618;47.056;15.472;2023-08-17T13:01:48;35.00;;;31.80;;
3211;SDS011;1618;47.056;15.472;2023-08-17T13:04:19;39.00;;;35.80;;
3211;SDS011;1618;47.056;15.472;2023-08-17T13:09:37;36.17;;;33.07;;
3211;SDS011;1618;47.056;15.472;2023-08-17T13:12:09;36.70;;;33.67;;
3211;SDS011;1618;47.056;15.472;2023-08-17T13:14:52;35.40;;;32.40;;
3211;SDS011;1618;47.056;15.472;2023-08-17T13:17:30;35.80;;;32.80;;
3211;SDS011;1618;47.056;15.472;2023-08-17T13:19:58;37.57;;;34.47;;
3211;SDS011;1618;47.056;15.472;2023-08-17T13:22:27;34.33;;;31.23;;
3211;SDS011;1618;47.056;15.472;2023-08-17T13:24:54;33.30;;;30.30;;
3211;SDS011;1618;47.056;15.472;2023-08-17T13:27:27;35.00;;;31.90;;
3211;SDS011;1618;47.056;15.472;2023-08-17T13:30:11;33.10;;;30.10;;
3211;SDS011;1618;47.056;15.472;2023-08-17T13:32:44;36.67;;;33.57;;
3211;SDS011;1618;47.056;15.472;2023-08-17T13:35:12;36.83;;;33.83;;
3211;SDS011;1618;47.056;15.472;2023-08-17T13:37:54;34.03;;;30.93;;
3211;SDS011;1618;47.056;15.472;2023-08-17T13:40:27;34.10;;;31.00;;
3211;SDS011;1618;47.056;15.472;2023-08-17T13:43:02;34.70;;;31.60;;
3211;SDS011;1618;47.056;15.472;2023-08-17T13:45:40;34.50;;;31.40;;
3211;SDS011;1618;47.056;15.472;2023-08-17T13:48:09;33.93;;;30.83;;
3211;SDS011;1618;47.056;15.472;2023-08-17T13:50:45;33.23;;;30.23;;
3211;SDS011;1618;47.056;15.472;2023-08-17T13:53:12;33.53;;;30.43;;
3211;SDS011;1618;47.056;15.472;2023-08-17T13:55:41;36.57;;;33.57;;
3211;SDS011;1618;47.056;15.472;2023-08-17T13:58:14;33.73;;;30.63;;
3211;SDS011;1618;47.056;15.472;2023-08-17T14:09:45;33.60;;;30.50;;
3211;SDS011;1618;47.056;15.472;2023-08-17T14:12:15;38.63;;;35.53;;
3211;SDS011;1618;47.056;15.472;2023-08-17T14:14:43;36.83;;;33.63;;
3211;SDS011;1618;47.056;15.472;2023-08-17T14:17:28;37.13;;;34.03;;
3211;SDS011;1618;47.056;15.472;2023-08-17T14:19:59;36.13;;;33.03;;
3211;SDS011;1618;47.056;15.472;2023-08-17T14:22:26;37.07;;;33.97;;
3211;SDS011;1618;47.056;15.472;2023-08-17T14:24:58;34.53;;;31.33;;
3211;SDS011;1618;47.056;15.472;2023-08-17T14:27:33;34.20;;;31.00;;
3211;SDS011;1618;47.056;15.472;2023-08-17T14:33:02;33.77;;;30.67;;
3211;SDS011;1618;47.056;15.472;2023-08-17T14:35:36;35.80;;;32.80;;
3211;SDS011;1618;47.056;15.472;2023-08-17T14:38:12;33.00;;;29.90;;
3211;SDS011;1618;47.056;15.472;2023-08-17T14:40:53;35.20;;;31.90;;
3211;SDS011;1618;47.056;15.472;2023-08-17T14:43:31;36.27;;;33.27;;
3211;SDS011;1618;47.056;15.472;2023-08-17T14:45:58;33.90;;;31.10;;
3211;SDS011;1618;47.056;15.472;2023-08-17T14:48:36;34.53;;;31.33;;
3211;SDS011;1618;47.056;15.472;2023-08-17T14:51:12;36.90;;;33.90;;
3211;SDS011;1618;47.056;15.472;2023-08-17T14:56:38;34.80;;;31.90;;
3211;SDS011;1618;47.056;15.472;2023-08-17T14:59:05;34.07;;;31.17;;
3211;SDS011;1618;47.056;15.472;2023-08-17T15:04:29;33.37;;;30.67;;
3211;SDS011;1618;47.056;15.472;2023-08-17T15:09:43;32.20;;;29.70;;
3211;SDS011;1618;47.056;15.472;2023-08-17T15:12:14;33.67;;;31.07;;
3211;SDS011;1618;47.056;15.472;2023-08-17T15:17:30;32.20;;;29.70;;
3211;SDS011;1618;47.056;15.472;2023-08-17T15:20:16;30.97;;;28.57;;
3211;SDS011;1618;47.056;15.472;2023-08-17T15:22:58;31.73;;;29.13;;
3211;SDS011;1618;47.056;15.472;2023-08-17T15:25:34;31.67;;;29.07;;
3211;SDS011;1618;47.056;15.472;2023-08-17T15:28:17;31.10;;;28.50;;
3211;SDS011;1618;47.056;15.472;2023-08-17T15:30:48;30.70;;;28.20;;
3211;SDS011;1618;47.056;15.472;2023-08-17T15:33:17;30.80;;;28.30;;
3211;SDS011;1618;47.056;15.472;2023-08-17T15:38:30;29.57;;;27.07;;
3211;SDS011;1618;47.056;15.472;2023-08-17T15:40:58;31.03;;;28.43;;
3211;SDS011;1618;47.056;15.472;2023-08-17T15:43:44;31.10;;;28.50;;
3211;SDS011;1618;47.056;15.472;2023-08-17T15:46:18;30.90;;;28.40;;
3211;SDS011;1618;47.056;15.472;2023-08-17T15:48:46;29.60;;;27.20;;
3211;SDS011;1618;47.056;15.472;2023-08-17T15:51:19;30.93;;;28.53;;
3211;SDS011;1618;47.056;15.472;2023-08-17T15:53:48;29.80;;;27.40;;
3211;SDS011;1618;47.056;15.472;2023-08-17T15:56:22;29.97;;;27.57;;
3211;SDS011;1618;47.056;15.472;2023-08-17T15:58:57;31.27;;;28.77;;
3211;SDS011;1618;47.056;15.472;2023-08-17T16:01:41;30.30;;;27.90;;
3211;SDS011;1618;47.056;15.472;2023-08-17T16:04:27;30.63;;;28.23;;
3211;SDS011;1618;47.056;15.472;2023-08-17T16:06:56;31.47;;;29.00;;
3211;SDS011;1618;47.056;15.472;2023-08-17T16:09:33;31.20;;;28.60;;
3211;SDS011;1618;47.056;15.472;2023-08-17T16:15:01;30.57;;;28.07;;
3211;SDS011;1618;47.056;15.472;2023-08-17T16:20:38;31.23;;;28.73;;
3211;SDS011;1618;47.056;15.472;2023-08-17T16:23:11;31.07;;;28.70;;
3211;SDS011;1618;47.056;15.472;2023-08-17T16:25:46;31.70;;;29.40;;
3211;SDS011;1618;47.056;15.472;2023-08-17T16:28:26;31.20;;;28.90;;
3211;SDS011;1618;47.056;15.472;2023-08-17T16:33:44;31.40;;;29.00;;
3211;SDS011;1618;47.056;15.472;2023-08-17T16:36:17;30.30;;;27.90;;
3211;SDS011;1618;47.056;15.472;2023-08-17T16:38:53;30.70;;;28.30;;
3211;SDS011;1618;47.056;15.472;2023-08-17T16:41:25;29.17;;;26.87;;
3211;SDS011;1618;47.056;15.472;2023-08-17T16:43:56;29.80;;;27.50;;
3211;SDS011;1618;47.056;15.472;2023-08-17T16:46:24;29.50;;;27.20;;
3211;SDS011;1618;47.056;15.472;2023-08-17T16:49:08;30.93;;;28.73;;
3211;SDS011;1618;47.056;15.472;2023-08-17T16:51:49;30.57;;;28.37;;
3211;SDS011;1618;47.056;15.472;2023-08-17T16:54:18;30.83;;;28.53;;
3211;SDS011;1618;47.056;15.472;2023-08-17T16:56:51;31.83;;;29.43;;
3211;SDS011;1618;47.056;15.472;2023-08-17T16:59:25;29.57;;;27.37;;
3211;SDS011;1618;47.056;15.472;2023-08-17T17:02:10;28.73;;;26.43;;
3211;SDS011;1618;47.056;15.472;2023-08-17T17:04:43;29.00;;;26.70;;
3211;SDS011;1618;47.056;15.472;2023-08-17T17:07:17;27.90;;;25.70;;
3211;SDS011;1618;47.056;15.472;2023-08-17T17:12:37;29.20;;;26.90;;
3211;SDS011;1618;47.056;15.472;2023-08-17T17:15:07;28.17;;;25.80;;
3211;SDS011;1618;47.056;15.472;2023-08-17T17:17:39;29.47;;;27.07;;
3211;SDS011;1618;47.056;15.472;2023-08-17T17:20:08;28.90;;;26.60;;
3211;SDS011;1618;47.056;15.472;2023-08-17T17:22:41;29.30;;;27.10;;
3211;SDS011;1618;47.056;15.472;2023-08-17T17:25:10;30.20;;;27.90;;
3211;SDS011;1618;47.056;15.472;2023-08-17T17:27:39;28.87;;;26.67;;
3211;SDS011;1618;47.056;15.472;2023-08-17T17:30:13;28.30;;;26.10;;
3211;SDS011;1618;47.056;15.472;2023-08-17T17:32:43;28.17;;;26.07;;
3211;SDS011;1618;47.056;15.472;2023-08-17T17:35:12;27.00;;;25.00;;
3211;SDS011;1618;47.056;15.472;2023-08-17T17:37:39;27.13;;;25.07;;
3211;SDS011;1618;47.056;15.472;2023-08-17T17:40:14;27.00;;;25.00;;
3211;SDS011;1618;47.056;15.472;2023-08-17T17:42:42;27.47;;;25.37;;
3211;SDS011;1618;47.056;15.472;2023-08-17T17:45:17;26.80;;;24.90;;
3211;SDS011;1618;47.056;15.472;2023-08-17T17:47:48;27.37;;;25.57;;
3211;SDS011;1618;47.056;15.472;2023-08-17T17:50:22;26.30;;;24.60;;
3211;SDS011;1618;47.056;15.472;2023-08-17T17:52:58;26.90;;;25.20;;
3211;SDS011;1618;47.056;15.472;2023-08-17T17:55:25;26.50;;;24.70;;
3211;SDS011;1618;47.056;15.472;2023-08-17T17:57:52;28.50;;;26.50;;
3211;SDS011;1618;47.056;15.472;2023-08-17T18:00:22;29.90;;;27.90;;
3211;SDS011;1618;47.056;15.472;2023-08-17T18:03:07;29.00;;;27.10;;
3211;SDS011;1618;47.056;15.472;2023-08-17T18:05:45;28.90;;;27.10;;
3211;SDS011;1618;47.056;15.472;2023-08-17T18:08:23;27.33;;;25.63;;
3211;SDS011;1618;47.056;15.472;2023-08-17T18:10:52;26.87;;;25.27;;
3211;SDS011;1618;47.056;15.472;2023-08-17T18:13:34;28.33;;;26.63;;
3211;SDS011;1618;47.056;15.472;2023-08-17T18:16:02;28.10;;;26.40;;
3211;SDS011;1618;47.056;15.472;2023-08-17T18:18:38;27.83;;;26.13;;
3211;SDS011;1618;47.056;15.472;2023-08-17T18:21:08;23.87;;;22.57;;
3211;SDS011;1618;47.056;15.472;2023-08-17T18:23:36;23.30;;;22.00;;
3211;SDS011;1618;47.056;15.472;2023-08-17T18:26:05;22.90;;;21.60;;
3211;SDS011;1618;47.056;15.472;2023-08-17T18:28:38;22.23;;;21.03;;
3211;SDS011;1618;47.056;15.472;2023-08-17T18:31:07;22.63;;;21.43;;
3211;SDS011;1618;47.056;15.472;2023-08-17T18:33:43;21.33;;;20.23;;
3211;SDS011;1618;47.056;15.472;2023-08-17T18:36:23;21.40;;;20.30;;
3211;SDS011;1618;47.056;15.472;2023-08-17T18:38:50;21.27;;;20.17;;
3211;SDS011;1618;47.056;15.472;2023-08-17T18:41:23;22.60;;;21.40;;
3211;SDS011;1618;47.056;15.472;2023-08-17T18:43:55;21.30;;;20.20;;
3211;SDS011;1618;47.056;15.472;2023-08-17T18:46:25;21.37;;;20.27;;
3211;SDS011;1618;47.056;15.472;2023-08-17T18:48:55;19.60;;;18.60;;
3211;SDS011;1618;47.056;15.472;2023-08-17T18:51:27;20.20;;;19.20;;
3211;SDS011;1618;47.056;15.472;2023-08-17T18:54:00;19.03;;;18.13;;
3211;SDS011;1618;47.056;15.472;2023-08-17T18:56:34;18.40;;;17.50;;
3211;SDS011;1618;47.056;15.472;2023-08-17T18:59:15;20.00;;;19.00;;
3211;SDS011;1618;47.056;15.472;2023-08-17T19:01:45;18.30;;;17.40;;
3211;SDS011;1618;47.056;15.472;2023-08-17T19:04:13;17.20;;;16.40;;
3211;SDS011;1618;47.056;15.472;2023-08-17T19:06:42;17.80;;;17.00;;
3211;SDS011;1618;47.056;15.472;2023-08-17T19:09:18;17.83;;;17.03;;
3211;SDS011;1618;47.056;15.472;2023-08-17T19:11:52;17.10;;;16.30;;
3211;SDS011;1618;47.056;15.472;2023-08-17T19:14:30;16.77;;;15.97;;
3211;SDS011;1618;47.056;15.472;2023-08-17T19:16:59;17.27;;;16.47;;
3211;SDS011;1618;47.056;15.472;2023-08-17T19:19:27;15.97;;;15.27;;
3211;SDS011;1618;47.056;15.472;2023-08-17T19:21:57;17.10;;;16.30;;
3211;SDS011;1618;47.056;15.472;2023-08-17T19:24:25;16.13;;;15.43;;
3211;SDS011;1618;47.056;15.472;2023-08-17T19:26:56;15.50;;;14.80;;
3211;SDS011;1618;47.056;15.472;2023-08-17T19:29:33;15.17;;;14.47;;
3211;SDS011;1618;47.056;15.472;2023-08-17T19:32:12;14.23;;;13.63;;
3211;SDS011;1618;47.056;15.472;2023-08-17T19:34:50;13.60;;;13.00;;
3211;SDS011;1618;47.056;15.472;2023-08-17T19:37:21;14.50;;;13.90;;
3211;SDS011;1618;47.056;15.472;2023-08-17T19:42:36;13.90;;;13.30;;
3211;SDS011;1618;47.056;15.472;2023-08-17T19:45:15;13.70;;;13.10;;
3211;SDS011;1618;47.056;15.472;2023-08-17T19:47:46;13.77;;;13.17;;
3211;SDS011;1618;47.056;15.472;2023-08-17T19:50:15;12.60;;;12.10;;
3211;SDS011;1618;47.056;15.472;2023-08-17T19:52:46;12.90;;;12.40;;
3211;SDS011;1618;47.056;15.472;2023-08-17T19:55:22;12.00;;;11.50;;
3211;SDS011;1618;47.056;15.472;2023-08-17T20:00:46;12.70;;;12.20;;
3211;SDS011;1618;47.056;15.472;2023-08-17T20:03:20;12.70;;;12.20;;
3211;SDS011;1618;47.056;15.472;2023-08-17T20:05:56;12.50;;;12.00;;
3211;SDS011;1618;47.056;15.472;2023-08-17T20:08:25;12.30;;;11.80;;
3211;SDS011;1618;47.056;15.472;2023-08-17T20:10:57;12.93;;;12.43;;
3211;SDS011;1618;47.056;15.472;2023-08-17T20:13:29;12.83;;;12.33;;
3211;SDS011;1618;47.056;15.472;2023-08-17T20:16:01;13.00;;;12.50;;
3211;SDS011;1618;47.056;15.472;2023-08-17T20:18:35;12.73;;;12.23;;
3211;SDS011;1618;47.056;15.472;2023-08-17T20:21:08;13.57;;;12.97;;
3211;SDS011;1618;47.056;15.472;2023-08-17T20:23:50;13.70;;;13.10;;
3211;SDS011;1618;47.056;15.472;2023-08-17T20:26:19;13.93;;;13.33;;
3211;SDS011;1618;47.056;15.472;2023-08-17T20:28:47;13.57;;;12.97;;
3211;SDS011;1618;47.056;15.472;2023-08-17T20:31:16;12.83;;;12.33;;
3211;SDS011;1618;47.056;15.472;2023-08-17T20:33:46;12.40;;;11.90;;
3211;SDS011;1618;47.056;15.472;2023-08-17T20:36:15;12.73;;;12.23;;
3211;SDS011;1618;47.056;15.472;2023-08-17T20:38:56;12.90;;;12.40;;
3211;SDS011;1618;47.056;15.472;2023-08-17T20:41:39;13.70;;;13.10;;
3211;SDS011;1618;47.056;15.472;2023-08-17T20:44:21;15.67;;;15.00;;
3211;SDS011;1618;47.056;15.472;2023-08-17T20:46:49;15.10;;;14.40;;
3211;SDS011;1618;47.056;15.472;2023-08-17T20:49:21;14.43;;;13.83;;
3211;SDS011;1618;47.056;15.472;2023-08-17T20:51:52;12.70;;;12.20;;
3211;SDS011;1618;47.056;15.472;2023-08-17T20:54:34;12.93;;;12.43;;
3211;SDS011;1618;47.056;15.472;2023-08-17T20:57:08;13.50;;;12.90;;
3211;SDS011;1618;47.056;15.472;2023-08-17T20:59:36;15.30;;;14.60;;
3211;SDS011;1618;47.056;15.472;2023-08-17T21:05:08;15.40;;;14.70;;
3211;SDS011;1618;47.056;15.472;2023-08-17T21:07:52;14.00;;;13.40;;
3211;SDS011;1618;47.056;15.472;2023-08-17T21:10:39;14.03;;;13.43;;
3211;SDS011;1618;47.056;15.472;2023-08-17T21:13:20;13.20;;;12.60;;
3211;SDS011;1618;47.056;15.472;2023-08-17T21:16:02;13.47;;;12.87;;
3211;SDS011;1618;47.056;15.472;2023-08-17T21:18:46;12.43;;;11.93;;
3211;SDS011;1618;47.056;15.472;2023-08-17T21:21:19;11.80;;;11.30;;
3211;SDS011;1618;47.056;15.472;2023-08-17T21:29:39;12.90;;;12.40;;
3211;SDS011;1618;47.056;15.472;2023-08-17T21:32:07;12.00;;;11.50;;
3211;SDS011;1618;47.056;15.472;2023-08-17T21:34:34;11.10;;;10.70;;
3211;SDS011;1618;47.056;15.472;2023-08-17T21:37:05;10.20;;;9.80;;
3211;SDS011;1618;47.056;15.472;2023-08-17T21:39:35;8.00;;;7.70;;
3211;SDS011;1618;47.056;15.472;2023-08-17T21:42:09;10.77;;;10.37;;
3211;SDS011;1618;47.056;15.472;2023-08-17T21:44:36;8.80;;;8.50;;
3211;SDS011;1618;47.056;15.472;2023-08-17T21:47:05;10.93;;;10.53;;
3211;SDS011;1618;47.056;15.472;2023-08-17T21:49:33;11.37;;;10.90;;
3211;SDS011;1618;47.056;15.472;2023-08-17T21:52:00;10.90;;;10.50;;
3211;SDS011;1618;47.056;15.472;2023-08-17T21:54:32;10.97;;;10.57;;
3211;SDS011;1618;47.056;15.472;2023-08-17T21:57:10;11.47;;;10.97;;
3211;SDS011;1618;47.056;15.472;2023-08-17T21:59:39;11.40;;;10.90;;
3211;SDS011;1618;47.056;15.472;2023-08-17T22:02:17;10.83;;;10.43;;
3211;SDS011;1618;47.056;15.472;2023-08-17T22:04:58;10.07;;;9.67;;
3211;SDS011;1618;47.056;15.472;2023-08-17T22:07:44;83.93;;;77.53;;
3211;SDS011;1618;47.056;15.472;2023-08-17T22:10:16;10.57;;;10.17;;
3211;SDS011;1618;47.056;15.472;2023-08-17T22:12:50;9.53;;;9.13;;
3211;SDS011;1618;47.056;15.472;2023-08-17T22:15:21;9.40;;;9.00;;
3211;SDS011;1618;47.056;15.472;2023-08-17T22:17:50;9.77;;;9.37;;
3211;SDS011;1618;47.056;15.472;2023-08-17T22:20:19;9.47;;;9.13;;
3211;SDS011;1618;47.056;15.472;2023-08-17T22:22:52;9.90;;;9.50;;
3211;SDS011;1618;47.056;15.472;2023-08-17T22:25:20;9.90;;;9.50;;
3211;SDS011;1618;47.056;15.472;2023-08-17T22:27:51;10.90;;;10.50;;
3211;SDS011;1618;47.056;15.472;2023-08-17T22:30:18;11.17;;;10.77;;
3211;SDS011;1618;47.056;15.472;2023-08-17T22:33:00;11.10;;;10.70;;
3211;SDS011;1618;47.056;15.472;2023-08-17T22:35:27;11.63;;;11.13;;
3211;SDS011;1618;47.056;15.472;2023-08-17T22:37:56;10.60;;;10.20;;
3211;SDS011;1618;47.056;15.472;2023-08-17T22:40:29;10.70;;;10.30;;
3211;SDS011;1618;47.056;15.472;2023-08-17T22:42:57;11.00;;;10.60;;
3211;SDS011;1618;47.056;15.472;2023-08-17T22:45:25;10.53;;;10.13;;
3211;SDS011;1618;47.056;15.472;2023-08-17T22:51:07;11.10;;;10.70;;
3211;SDS011;1618;47.056;15.472;2023-08-17T22:53:39;11.30;;;10.90;;
3211;SDS011;1618;47.056;15.472;2023-08-17T22:56:12;14.07;;;13.47;;
3211;SDS011;1618;47.056;15.472;2023-08-17T22:58:42;12.17;;;11.67;;
3211;SDS011;1618;47.056;15.472;2023-08-17T23:01:11;11.43;;;11.03;;
3211;SDS011;1618;47.056;15.472;2023-08-17T23:03:40;11.23;;;10.83;;
3211;SDS011;1618;47.056;15.472;2023-08-17T23:06:12;10.47;;;10.07;;
3211;SDS011;1618;47.056;15.472;2023-08-17T23:08:55;10.00;;;9.60;;
3211;SDS011;1618;47.056;15.472;2023-08-17T23:11:25;9.80;;;9.40;;
3211;SDS011;1618;47.056;15.472;2023-08-17T23:13:57;9.53;;;9.13;;
3211;SDS011;1618;47.056;15.472;2023-08-17T23:16:32;9.80;;;9.40;;
3211;SDS011;1618;47.056;15.472;2023-08-17T23:19:00;10.47;;;10.07;;
3211;SDS011;1618;47.056;15.472;2023-08-17T23:21:30;9.93;;;9.53;;
3211;SDS011;1618;47.056;15.472;2023-08-17T23:24:04;10.10;;;9.70;;
3211;SDS011;1618;47.056;15.472;2023-08-17T23:26:37;9.93;;;9.53;;
3211;SDS011;1618;47.056;15.472;2023-08-17T23:29:10;10.00;;;9.60;;
3211;SDS011;1618;47.056;15.472;2023-08-17T23:31:43;10.00;;;9.60;;
3211;SDS011;1618;47.056;15.472;2023-08-17T23:34:11;10.00;;;9.60;;
3211;SDS011;1618;47.056;15.472;2023-08-17T23:36:51;9.80;;;9.40;;
3211;SDS011;1618;47.056;15.472;2023-08-17T23:42:27;10.50;;;10.10;;
3211;SDS011;1618;47.056;15.472;2023-08-17T23:45:00;10.40;;;10.00;;
3211;SDS011;1618;47.056;15.472;2023-08-17T23:47:34;10.20;;;9.80;;